createdAt,value
2018-02-03T00:00:20.847Z,0.90
2018-02-03T00:02:48.477Z,0.80
2018-02-03T00:05:16.099Z,0.80
2018-02-03T00:07:43.671Z,0.70
2018-02-03T00:10:12.016Z,0.60
2018-02-03T00:12:39.618Z,0.50
2018-02-03T00:15:07.995Z,0.30
2018-02-03T00:17:36.386Z,0.30
2018-02-03T00:20:03.977Z,0.30
2018-02-03T00:22:31.604Z,0.40
2018-02-03T00:24:59.168Z,0.40
2018-02-03T00:27:26.760Z,0.30
2018-02-03T00:29:54.358Z,0.10
2018-02-03T00:32:22.750Z,0.20
2018-02-03T00:34:51.134Z,0.20
2018-02-03T00:37:18.742Z,0.20
2018-02-03T00:39:46.330Z,0.10
2018-02-03T00:42:14.701Z,0.10
2018-02-03T00:44:42.293Z,0.10
2018-02-03T00:47:09.904Z,0.10
2018-02-03T00:49:37.518Z,0.10
2018-02-03T00:52:05.120Z,0.10
2018-02-03T00:54:32.717Z,0.00
2018-02-03T00:57:00.323Z,0.20
2018-02-03T00:59:27.891Z,0.30
2018-02-03T01:01:55.466Z,0.40
2018-02-03T01:04:23.107Z,0.40
2018-02-03T01:06:51.484Z,0.30
2018-02-03T01:09:19.078Z,0.30
2018-02-03T01:11:46.699Z,0.30
2018-02-03T01:14:14.310Z,0.30
2018-02-03T01:16:41.933Z,0.40
2018-02-03T01:19:09.539Z,0.40
2018-02-03T01:21:37.963Z,0.30
2018-02-03T01:24:06.286Z,0.30
2018-02-03T01:26:33.910Z,0.30
2018-02-03T01:29:01.452Z,0.20
2018-02-03T01:31:29.031Z,0.20
2018-02-03T01:33:56.630Z,0.20
2018-02-03T01:36:25.009Z,0.20
2018-02-03T01:38:53.366Z,0.20
2018-02-03T01:41:20.974Z,0.20
2018-02-03T01:43:48.528Z,0.20
2018-02-03T01:46:16.163Z,0.20
2018-02-03T01:48:43.736Z,0.20
2018-02-03T01:51:12.096Z,0.20
2018-02-03T01:53:39.691Z,0.20
2018-02-03T01:56:07.263Z,0.20
2018-02-03T01:58:34.898Z,0.20
2018-02-03T02:01:03.282Z,0.20
2018-02-03T02:03:30.890Z,0.30
2018-02-03T02:05:58.519Z,0.30
2018-02-03T02:08:26.106Z,0.20
2018-02-03T02:10:53.717Z,0.20
2018-02-03T02:13:22.097Z,0.30
2018-02-03T02:15:49.702Z,0.20
2018-02-03T02:18:17.253Z,0.30
2018-02-03T02:20:44.837Z,0.30
2018-02-03T02:23:12.443Z,0.30
2018-02-03T02:25:40.063Z,0.30
2018-02-03T02:28:07.700Z,0.30
2018-02-03T02:30:35.306Z,0.30
2018-02-03T02:33:02.895Z,0.20
2018-02-03T02:35:30.521Z,0.20
2018-02-03T02:37:58.156Z,0.20
2018-02-03T02:40:25.719Z,0.20
2018-02-03T02:42:53.321Z,0.10
2018-02-03T02:45:20.931Z,0.00
2018-02-03T02:47:48.568Z,-0.10
2018-02-03T02:50:16.178Z,-0.20
2018-02-03T02:52:43.803Z,-0.30
2018-02-03T02:55:11.427Z,-0.50
2018-02-03T02:57:39.002Z,-0.60
2018-02-03T03:00:06.579Z,-0.70
2018-02-03T03:02:34.168Z,-0.80
2018-02-03T03:05:01.798Z,-1.00
2018-02-03T03:07:29.390Z,-1.10
2018-02-03T03:09:56.999Z,-1.20
2018-02-03T03:12:24.598Z,-1.40
2018-02-03T03:14:52.221Z,-1.50
2018-02-03T03:17:19.846Z,-1.70
2018-02-03T03:19:47.446Z,-1.90
2018-02-03T03:22:15.071Z,-2.00
2018-02-03T03:24:42.685Z,-2.20
2018-02-03T03:27:10.277Z,-2.20
2018-02-03T03:29:37.850Z,-2.20
2018-02-03T03:32:05.432Z,-2.20
2018-02-03T03:34:33.804Z,-2.30
2018-02-03T03:37:02.166Z,-2.20
2018-02-03T03:39:29.758Z,-2.20
2018-02-03T03:41:57.334Z,-2.00
2018-02-03T03:44:24.934Z,-1.90
2018-02-03T03:46:52.551Z,-1.70
2018-02-03T03:49:20.145Z,-1.50
2018-02-03T03:51:47.758Z,-1.30
2018-02-03T03:54:15.372Z,-1.10
2018-02-03T03:56:42.951Z,-0.80
2018-02-03T03:59:11.314Z,-0.40
2018-02-03T04:01:38.903Z,-0.50
2018-02-03T04:04:07.306Z,-0.20
2018-02-03T04:06:35.830Z,-0.20
2018-02-03T04:09:03.422Z,-0.10
2018-02-03T04:11:31.822Z,0.00
2018-02-03T04:13:59.460Z,0.00
2018-02-03T04:16:27.061Z,0.10
2018-02-03T04:18:54.656Z,0.10
2018-02-03T04:21:22.268Z,0.20
2018-02-03T04:23:49.849Z,0.20
2018-02-03T04:26:17.439Z,0.20
2018-02-03T04:28:45.234Z,0.30
2018-02-03T04:31:12.805Z,0.30
2018-02-03T04:33:40.361Z,0.30
2018-02-03T04:36:07.964Z,0.30
2018-02-03T04:38:35.548Z,0.30
2018-02-03T04:41:03.901Z,0.40
2018-02-03T04:43:31.492Z,0.40
2018-02-03T04:45:59.833Z,0.40
2018-02-03T04:48:27.451Z,0.40
2018-02-03T04:50:55.026Z,0.40
2018-02-03T04:53:22.634Z,0.40
2018-02-03T04:55:50.270Z,0.40
2018-02-03T04:58:17.874Z,0.40
2018-02-03T05:00:45.434Z,0.40
2018-02-03T05:03:13.772Z,0.40
2018-02-03T05:05:41.362Z,0.40
2018-02-03T05:08:08.909Z,0.50
2018-02-03T05:14:14.385Z,0.50
2018-02-03T05:16:41.926Z,0.50
2018-02-03T05:19:15.486Z,0.50
2018-02-03T05:21:43.068Z,0.50
2018-02-03T05:24:10.668Z,0.50
2018-02-03T05:26:38.295Z,0.50
2018-02-03T05:29:14.220Z,0.50
2018-02-03T05:31:41.813Z,0.50
2018-02-03T05:34:09.455Z,0.40
2018-02-03T05:36:37.054Z,0.50
2018-02-03T05:39:04.651Z,0.40
2018-02-03T05:41:32.276Z,0.40
2018-02-03T05:43:59.879Z,0.40
2018-02-03T05:46:33.751Z,0.40
2018-02-03T05:49:01.378Z,0.40
2018-02-03T05:51:28.957Z,0.40
2018-02-03T05:53:56.550Z,0.40
2018-02-03T05:56:24.235Z,0.40
2018-02-03T05:58:54.883Z,0.40
2018-02-03T06:01:22.459Z,0.40
2018-02-03T06:03:50.082Z,0.40
2018-02-03T06:06:17.662Z,0.50
2018-02-03T06:08:45.229Z,0.50
2018-02-03T06:11:12.814Z,0.50
2018-02-03T06:13:40.481Z,0.50
2018-02-03T06:16:08.083Z,0.50
2018-02-03T06:18:35.705Z,0.50
2018-02-03T06:21:03.286Z,0.50
2018-02-03T06:23:31.642Z,0.50
2018-02-03T06:25:59.352Z,0.50
2018-02-03T06:28:26.972Z,0.50
2018-02-03T06:30:54.575Z,0.60
2018-02-03T06:33:22.154Z,0.60
2018-02-03T06:35:49.770Z,0.60
2018-02-03T06:38:17.363Z,0.60
2018-02-03T06:40:44.908Z,0.70
2018-02-03T06:43:12.502Z,0.70
2018-02-03T06:45:40.112Z,0.70
2018-02-03T06:48:07.715Z,0.70
2018-02-03T06:50:35.358Z,0.70
2018-02-03T06:53:02.940Z,0.70
2018-02-03T06:55:30.563Z,0.70
2018-02-03T06:57:58.146Z,0.70
2018-02-03T07:00:25.698Z,0.60
2018-02-03T07:02:53.296Z,0.60
2018-02-03T07:05:20.878Z,0.60
2018-02-03T07:07:49.237Z,0.50
2018-02-03T07:10:16.827Z,0.50
2018-02-03T07:12:44.386Z,0.60
2018-02-03T07:15:11.975Z,0.60
2018-02-03T07:17:39.552Z,0.60
2018-02-03T07:20:07.170Z,0.70
2018-02-03T07:22:34.751Z,0.70
2018-02-03T07:25:02.346Z,0.70
2018-02-03T07:27:29.935Z,0.80
2018-02-03T07:29:58.282Z,0.80
2018-02-03T07:32:25.911Z,0.80
2018-02-03T07:34:53.526Z,0.80
2018-02-03T07:37:21.887Z,0.90
2018-02-03T07:39:49.463Z,0.80
2018-02-03T07:42:17.070Z,0.90
2018-02-03T07:44:49.212Z,0.80
2018-02-03T07:47:17.561Z,0.90
2018-02-03T07:49:45.178Z,0.80
2018-02-03T07:52:12.794Z,0.80
2018-02-03T07:54:40.528Z,0.80
2018-02-03T07:57:08.132Z,0.90
2018-02-03T07:59:36.511Z,1.00
2018-02-03T08:02:04.883Z,1.00
2018-02-03T08:04:33.269Z,1.00
2018-02-03T08:07:00.853Z,1.00
2018-02-03T08:09:28.450Z,1.10
2018-02-03T08:11:56.138Z,1.10
2018-02-03T08:14:23.706Z,1.10
2018-02-03T08:16:51.327Z,1.10
2018-02-03T08:19:18.905Z,1.20
2018-02-03T08:21:46.495Z,1.20
2018-02-03T08:24:14.122Z,1.20
2018-02-03T08:26:42.698Z,1.20
2018-02-03T08:29:10.283Z,1.30
2018-02-03T08:31:43.518Z,1.40
2018-02-03T08:34:17.411Z,1.40
2018-02-03T08:36:44.958Z,1.40
2018-02-03T08:39:12.571Z,1.40
2018-02-03T08:41:40.169Z,1.40
2018-02-03T08:44:08.499Z,1.30
2018-02-03T08:46:41.407Z,1.30
2018-02-03T08:49:09.035Z,1.30
2018-02-03T08:51:36.585Z,1.30
2018-02-03T08:54:04.188Z,1.30
2018-02-03T08:56:31.790Z,1.40
2018-02-03T08:58:59.394Z,1.50
2018-02-03T09:01:27.008Z,1.40
2018-02-03T09:03:54.680Z,1.40
2018-02-03T09:06:22.282Z,1.40
2018-02-03T09:08:49.877Z,1.50
2018-02-03T09:11:18.270Z,1.50
2018-02-03T09:13:45.859Z,1.50
2018-02-03T09:16:13.486Z,1.60
2018-02-03T09:18:41.121Z,1.60
2018-02-03T09:21:08.693Z,1.70
2018-02-03T09:23:36.270Z,1.80
2018-02-03T09:26:03.879Z,1.90
2018-02-03T09:28:32.331Z,2.10
2018-02-03T09:30:59.974Z,2.30
2018-02-03T09:33:27.597Z,2.30
2018-02-03T09:35:55.154Z,2.50
2018-02-03T09:38:22.710Z,2.70
2018-02-03T09:40:50.310Z,3.00
2018-02-03T09:43:17.884Z,2.90
2018-02-03T09:45:45.524Z,2.90
2018-02-03T09:48:13.900Z,3.00
2018-02-03T09:50:42.284Z,3.40
2018-02-03T09:53:09.868Z,3.40
2018-02-03T09:55:37.475Z,3.60
2018-02-03T09:58:05.104Z,4.50
2018-02-03T10:00:32.705Z,5.60
2018-02-03T10:03:01.099Z,9.20
2018-02-03T10:05:28.664Z,9.10
2018-02-03T10:07:56.273Z,9.70
2018-02-03T10:10:23.834Z,8.40
2018-02-03T10:12:51.427Z,7.80
2018-02-03T10:15:19.834Z,7.20
2018-02-03T10:17:47.445Z,7.20
2018-02-03T10:20:15.037Z,8.20
2018-02-03T10:22:42.658Z,10.40
2018-02-03T10:25:10.228Z,10.70
2018-02-03T10:27:37.868Z,12.00
2018-02-03T10:30:05.488Z,11.00
2018-02-03T10:32:33.109Z,10.30
2018-02-03T10:35:00.667Z,10.70
2018-02-03T10:37:28.284Z,12.10
2018-02-03T10:39:55.914Z,12.00
2018-02-03T10:42:24.297Z,9.80
2018-02-03T10:44:52.639Z,8.00
2018-02-03T10:47:20.281Z,8.00
2018-02-03T10:49:47.874Z,7.70
2018-02-03T10:52:15.497Z,7.50
2018-02-03T10:54:43.109Z,6.60
2018-02-03T10:57:11.472Z,8.40
2018-02-03T10:59:39.842Z,9.30
2018-02-03T11:02:07.478Z,9.20
2018-02-03T11:04:35.071Z,9.00
2018-02-03T11:07:02.660Z,8.70
2018-02-03T11:09:30.302Z,10.10
2018-02-03T11:11:58.662Z,12.50
2018-02-03T11:14:26.323Z,12.50
2018-02-03T11:16:54.799Z,12.00
2018-02-03T11:19:22.401Z,10.00
2018-02-03T11:21:49.988Z,6.80
2018-02-03T11:24:17.576Z,5.10
2018-02-03T11:26:45.205Z,4.50
2018-02-03T11:29:12.851Z,4.00
2018-02-03T11:31:40.435Z,3.90
2018-02-03T11:34:08.039Z,3.90
2018-02-03T11:36:36.398Z,4.30
2018-02-03T11:39:04.014Z,4.30
2018-02-03T11:41:31.622Z,4.10
2018-02-03T11:43:59.200Z,4.20
2018-02-03T11:46:33.431Z,4.20
2018-02-03T11:49:01.807Z,5.20
2018-02-03T11:51:31.319Z,5.20
2018-02-03T11:53:58.977Z,5.20
2018-02-03T11:56:26.568Z,5.10
2018-02-03T11:58:54.163Z,4.80
2018-02-03T12:01:21.759Z,5.10
2018-02-03T12:03:49.323Z,5.20
2018-02-03T12:06:16.890Z,4.90
2018-02-03T12:08:44.483Z,5.00
2018-02-03T12:11:12.073Z,5.00
2018-02-03T12:13:40.459Z,5.20
2018-02-03T12:16:08.818Z,4.90
2018-02-03T12:18:36.407Z,4.90
2018-02-03T12:21:04.032Z,4.60
2018-02-03T12:23:31.637Z,4.60
2018-02-03T12:25:59.258Z,4.70
2018-02-03T12:28:26.890Z,4.20
2018-02-03T12:30:54.476Z,4.00
2018-02-03T12:33:22.095Z,3.80
2018-02-03T12:35:49.634Z,3.60
2018-02-03T12:38:17.268Z,3.50
2018-02-03T12:40:44.859Z,3.40
2018-02-03T12:43:12.432Z,3.40
2018-02-03T12:45:40.035Z,3.40
2018-02-03T12:48:07.645Z,3.30
2018-02-03T12:50:35.212Z,3.30
2018-02-03T12:53:02.817Z,3.20
2018-02-03T12:55:30.429Z,3.20
2018-02-03T12:57:58.104Z,3.20
2018-02-03T13:00:25.766Z,3.20
2018-02-03T13:02:55.319Z,3.20
2018-02-03T13:05:22.907Z,3.30
2018-02-03T13:07:50.494Z,3.30
2018-02-03T13:10:18.113Z,3.30
2018-02-03T13:12:46.475Z,3.30
2018-02-03T13:15:14.123Z,3.30
2018-02-03T13:17:41.642Z,3.60
2018-02-03T13:20:10.054Z,4.00
2018-02-03T13:22:37.705Z,4.00
2018-02-03T13:25:05.297Z,4.30
2018-02-03T13:27:32.899Z,4.60
2018-02-03T13:30:00.492Z,4.60
2018-02-03T13:32:28.095Z,4.60
2018-02-03T13:34:56.459Z,4.50
2018-02-03T13:37:24.057Z,4.50
2018-02-03T13:39:51.636Z,4.90
2018-02-03T13:42:19.260Z,5.10
2018-02-03T13:44:47.651Z,4.60
2018-02-03T13:47:15.226Z,4.60
2018-02-03T13:49:46.138Z,4.60
2018-02-03T13:52:13.766Z,4.70
2018-02-03T13:54:41.353Z,4.80
2018-02-03T13:57:08.995Z,4.80
2018-02-03T13:59:36.621Z,4.60
2018-02-03T14:02:04.233Z,4.50
2018-02-03T14:04:36.204Z,4.20
2018-02-03T14:07:03.803Z,4.20
2018-02-03T14:09:31.415Z,4.30
2018-02-03T14:11:59.743Z,4.10
2018-02-03T14:14:27.343Z,4.10
2018-02-03T14:16:54.899Z,4.10
2018-02-03T14:19:22.519Z,4.20
2018-02-03T14:21:50.150Z,4.20
2018-02-03T14:24:23.426Z,4.20
2018-02-03T14:26:51.031Z,4.30
2018-02-03T14:29:18.618Z,4.40
2018-02-03T14:31:47.135Z,4.40
2018-02-03T14:34:14.743Z,4.30
2018-02-03T14:36:42.316Z,4.30
2018-02-03T14:39:09.875Z,4.20
2018-02-03T14:41:37.471Z,4.20
2018-02-03T14:44:05.063Z,4.10
2018-02-03T14:46:32.604Z,3.90
2018-02-03T14:49:00.209Z,4.00
2018-02-03T14:51:27.775Z,3.70
2018-02-03T14:53:55.440Z,3.80
2018-02-03T14:56:23.007Z,3.70
2018-02-03T14:58:50.663Z,3.60
2018-02-03T15:01:18.288Z,3.50
2018-02-03T15:03:45.890Z,3.50
2018-02-03T15:06:13.525Z,3.60
2018-02-03T15:08:41.108Z,3.50
2018-02-03T15:11:08.696Z,3.50
2018-02-03T15:13:37.091Z,3.50
2018-02-03T15:16:04.641Z,3.50
2018-02-03T15:18:32.226Z,3.40
2018-02-03T15:20:59.863Z,3.40
2018-02-03T15:23:27.457Z,3.30
2018-02-03T15:25:55.077Z,3.20
2018-02-03T15:28:22.731Z,3.20
2018-02-03T15:30:51.086Z,3.20
2018-02-03T15:33:18.746Z,3.10
2018-02-03T15:35:46.347Z,3.10
2018-02-03T15:38:18.157Z,3.00
2018-02-03T15:40:45.766Z,2.90
2018-02-03T15:43:13.350Z,2.90
2018-02-03T15:45:40.970Z,3.00
2018-02-03T15:48:09.364Z,2.90
2018-02-03T15:50:37.004Z,2.80
2018-02-03T15:53:04.635Z,2.80
2018-02-03T15:55:32.276Z,2.80
2018-02-03T15:57:59.872Z,2.70
2018-02-03T16:00:27.507Z,2.70
2018-02-03T16:02:55.123Z,2.60
2018-02-03T16:05:22.715Z,2.50
2018-02-03T16:07:50.296Z,2.50
2018-02-03T16:10:20.797Z,2.40
2018-02-03T16:12:48.379Z,2.40
2018-02-03T16:15:16.000Z,2.30
2018-02-03T16:17:45.495Z,2.20
2018-02-03T16:20:13.130Z,2.20
2018-02-03T16:22:40.743Z,2.20
2018-02-03T16:25:08.383Z,2.20
2018-02-03T16:27:36.007Z,2.20
2018-02-03T16:30:03.606Z,2.20
2018-02-03T16:32:31.220Z,2.20
2018-02-03T16:34:58.814Z,2.10
2018-02-03T16:37:27.194Z,2.10
2018-02-03T16:39:54.780Z,2.10
2018-02-03T16:42:22.396Z,2.10
2018-02-03T16:44:49.984Z,2.10
2018-02-03T16:47:17.593Z,2.00
2018-02-03T16:49:45.199Z,2.00
2018-02-03T16:52:12.808Z,2.00
2018-02-03T16:54:40.390Z,2.00
2018-02-03T16:57:08.110Z,2.00
2018-02-03T16:59:35.680Z,2.00
2018-02-03T17:02:03.272Z,1.90
2018-02-03T17:04:30.859Z,1.80
2018-02-03T17:06:58.428Z,1.80
2018-02-03T17:09:26.051Z,1.80
2018-02-03T17:11:53.632Z,1.80
2018-02-03T17:14:21.991Z,1.80
2018-02-03T17:16:49.615Z,1.80
2018-02-03T17:19:17.237Z,1.80
2018-02-03T17:21:44.828Z,1.80
2018-02-03T17:24:12.440Z,1.70
2018-02-03T17:26:41.852Z,1.70
2018-02-03T17:29:10.179Z,1.70
2018-02-03T17:31:37.841Z,1.70
2018-02-03T17:34:05.417Z,1.70
2018-02-03T17:36:38.715Z,1.70
2018-02-03T17:39:06.311Z,1.60
2018-02-03T17:41:33.940Z,1.50
2018-02-03T17:44:01.500Z,1.50
2018-02-03T17:46:34.818Z,1.50
2018-02-03T17:49:03.148Z,1.40
2018-02-03T17:51:30.762Z,1.30
2018-02-03T17:53:59.141Z,1.40
2018-02-03T17:56:33.134Z,1.40
2018-02-03T17:59:01.499Z,1.40
2018-02-03T18:01:29.106Z,1.40
2018-02-03T18:03:56.713Z,1.40
2018-02-03T18:06:29.964Z,1.40
2018-02-03T18:08:57.573Z,1.40
2018-02-03T18:11:25.218Z,1.40
2018-02-03T18:14:02.523Z,1.40
2018-02-03T18:16:30.106Z,1.30
2018-02-03T18:18:58.476Z,1.30
2018-02-03T18:21:26.863Z,1.20
2018-02-03T18:24:01.651Z,1.20
2018-02-03T18:26:29.294Z,1.30
2018-02-03T18:28:56.920Z,1.20
2018-02-03T18:31:27.756Z,1.30
2018-02-03T18:33:55.409Z,1.30
2018-02-03T18:36:23.805Z,1.30
2018-02-03T18:38:56.768Z,1.30
2018-02-03T18:41:25.241Z,1.30
2018-02-03T18:43:57.883Z,1.40
2018-02-03T18:46:25.493Z,1.40
2018-02-03T18:48:53.069Z,1.30
2018-02-03T18:51:20.720Z,1.20
2018-02-03T18:53:49.102Z,1.20
2018-02-03T18:56:16.723Z,1.20
2018-02-03T18:58:44.328Z,1.20
2018-02-03T19:01:11.940Z,1.30
2018-02-03T19:03:39.586Z,1.30
2018-02-03T19:06:10.512Z,1.30
2018-02-03T19:08:43.795Z,1.40
2018-02-03T19:11:11.368Z,1.40
2018-02-03T19:13:38.979Z,1.40
2018-02-03T19:16:07.355Z,1.50
2018-02-03T19:18:35.731Z,1.50
2018-02-03T19:21:03.378Z,1.50
2018-02-03T19:23:41.747Z,1.50
2018-02-03T19:26:09.367Z,1.40
2018-02-03T19:28:37.053Z,1.40
2018-02-03T19:31:04.697Z,1.30
2018-02-03T19:33:33.076Z,1.20
2018-02-03T19:36:01.472Z,1.30
2018-02-03T19:38:29.096Z,1.20
2018-02-03T19:40:56.740Z,1.20
2018-02-03T19:43:24.344Z,1.20
2018-02-03T19:45:51.978Z,1.20
2018-02-03T19:48:19.565Z,1.20
2018-02-03T19:50:47.149Z,1.20
2018-02-03T19:53:14.779Z,1.20
2018-02-03T19:55:43.138Z,1.20
2018-02-03T19:58:10.812Z,1.20
2018-02-03T20:00:38.436Z,1.20
2018-02-03T20:03:06.110Z,1.20
2018-02-03T20:05:33.757Z,1.20
2018-02-03T20:08:01.388Z,1.20
2018-02-03T20:10:28.977Z,1.20
2018-02-03T20:12:57.613Z,1.20
2018-02-03T20:15:25.987Z,1.20
2018-02-03T20:17:54.311Z,1.20
2018-02-03T20:20:21.940Z,1.20
2018-02-03T20:22:50.283Z,1.20
2018-02-03T20:25:17.903Z,1.20
2018-02-03T20:27:45.484Z,1.20
2018-02-03T20:30:13.143Z,1.20
2018-02-03T20:32:40.764Z,1.20
2018-02-03T20:35:08.389Z,1.20
2018-02-03T20:37:35.978Z,1.20
2018-02-03T20:40:04.340Z,1.20
2018-02-03T20:42:31.978Z,1.20
2018-02-03T20:44:59.627Z,1.20
2018-02-03T20:47:27.206Z,1.20
2018-02-03T20:49:54.804Z,1.20
2018-02-03T20:52:23.192Z,1.20
2018-02-03T20:54:50.801Z,1.20
2018-02-03T20:57:18.436Z,1.30
2018-02-03T20:59:46.830Z,1.10
2018-02-03T21:02:14.430Z,1.10
2018-02-03T21:04:42.784Z,1.00
2018-02-03T21:07:10.371Z,1.00
2018-02-03T21:09:38.791Z,0.90
2018-02-03T21:12:06.424Z,0.90
2018-02-03T21:14:34.053Z,0.90
2018-02-03T21:17:01.594Z,0.90
2018-02-03T21:19:29.202Z,0.80
2018-02-03T21:21:56.839Z,0.80
2018-02-03T21:24:24.435Z,0.80
2018-02-03T21:26:52.787Z,0.70
2018-02-03T21:29:21.115Z,0.60
2018-02-03T21:31:48.709Z,0.60
2018-02-03T21:34:16.323Z,0.60
2018-02-03T21:36:43.929Z,0.60
2018-02-03T21:39:11.514Z,0.60
2018-02-03T21:41:39.114Z,0.50
2018-02-03T21:44:06.705Z,0.50
2018-02-03T21:46:34.307Z,0.50
2018-02-03T21:49:01.895Z,0.50
2018-02-03T21:51:29.520Z,0.50
2018-02-03T21:53:57.152Z,0.50
2018-02-03T21:56:24.726Z,0.60
2018-02-03T21:58:53.088Z,0.60
2018-02-03T22:01:20.686Z,0.60
2018-02-03T22:03:48.285Z,0.70
2018-02-03T22:06:15.898Z,0.60
2018-02-03T22:08:43.511Z,0.60
2018-02-03T22:11:11.125Z,0.60
2018-02-03T22:13:38.808Z,0.60
2018-02-03T22:16:06.408Z,0.60
2018-02-03T22:18:34.008Z,0.50
2018-02-03T22:21:01.627Z,0.50
2018-02-03T22:23:29.171Z,0.50
2018-02-03T22:25:56.759Z,0.50
2018-02-03T22:28:24.372Z,0.40
2018-02-03T22:30:51.947Z,0.40
2018-02-03T22:33:19.550Z,0.40
2018-02-03T22:35:47.961Z,0.30
2018-02-03T22:38:15.550Z,0.30
2018-02-03T22:40:43.146Z,0.30
2018-02-03T22:43:11.491Z,0.20
2018-02-03T22:45:39.066Z,0.20
2018-02-03T22:48:07.426Z,0.20
2018-02-03T22:50:35.022Z,0.20
2018-02-03T22:53:02.627Z,0.30
2018-02-03T22:55:30.203Z,0.20
2018-02-03T22:57:57.827Z,0.20
2018-02-03T23:00:25.454Z,0.20
2018-02-03T23:02:58.935Z,0.30
2018-02-03T23:05:26.490Z,0.20
2018-02-03T23:07:54.069Z,0.20
2018-02-03T23:10:22.479Z,0.10
2018-02-03T23:12:50.091Z,0.10
2018-02-03T23:15:17.680Z,0.10
2018-02-03T23:17:45.294Z,0.20
2018-02-03T23:20:12.923Z,0.20
2018-02-03T23:22:40.544Z,0.20
2018-02-03T23:25:08.128Z,0.30
2018-02-03T23:27:35.691Z,0.30
2018-02-03T23:30:03.295Z,0.40
2018-02-03T23:32:30.902Z,0.40
2018-02-03T23:34:59.267Z,0.50
2018-02-03T23:37:26.893Z,0.50
2018-02-03T23:39:54.478Z,0.50
2018-02-03T23:42:22.039Z,0.50
2018-02-03T23:44:49.653Z,0.50
2018-02-03T23:47:17.218Z,0.60
2018-02-03T23:49:44.797Z,0.50
2018-02-03T23:52:12.412Z,0.50
2018-02-03T23:54:40.752Z,0.50
2018-02-03T23:57:08.382Z,0.40
2018-02-03T23:59:35.964Z,0.40
